Time;durP1;ratioP1;P1;durP2;ratioP2;P2;SDS_P1;SDS_P2;PMS_P1;PMS_P2;Temp;Humidity;BMP_temperature;BMP_pressure;BME280_temperature;BME280_humidity;BME280_pressure;Samples;Min_cycle;Max_cycle;Signal;HPM_P1;HPM_P2
2022/05/02 00:00:42;;;;;;;7.18;4.25;;;5.80;99.90;;;;;;5014987;28;20050;-78
2022/05/02 00:03:08;;;;;;;8.50;4.85;;;5.80;99.90;;;;;;5015219;28;20064;-78
2022/05/02 00:05:34;;;;;;;6.88;4.75;;;5.70;99.90;;;;;;5032355;28;20045;-78
2022/05/02 00:07:59;;;;;;;7.47;4.75;;;5.70;99.90;;;;;;5014997;28;20431;-78
2022/05/02 00:10:25;;;;;;;8.15;5.15;;;5.70;99.90;;;;;;5014230;28;20045;-78
2022/05/02 00:12:51;;;;;;;7.38;4.38;;;5.70;99.90;;;;;;5014942;28;20504;-78
2022/05/02 00:15:16;;;;;;;8.75;4.57;;;5.70;99.90;;;;;;5014598;28;20468;-78
2022/05/02 00:17:57;;;;;;;7.38;4.68;;;5.70;99.90;;;;;;5014804;28;20045;-78
2022/05/02 00:20:28;;;;;;;7.32;4.35;;;5.60;99.90;;;;;;5013926;28;20687;-78
2022/05/02 00:22:55;;;;;;;9.57;4.55;;;5.50;99.90;;;;;;5014838;28;20138;-78
2022/05/02 00:25:20;;;;;;;7.10;4.55;;;5.50;99.90;;;;;;5014121;28;20041;-78
2022/05/02 00:27:47;;;;;;;8.48;4.85;;;5.30;99.90;;;;;;5014188;28;20045;-78
2022/05/02 00:30:13;;;;;;;7.03;4.50;;;5.30;99.90;;;;;;5013838;28;20060;-78
2022/05/02 00:32:39;;;;;;;8.80;4.15;;;5.20;99.90;;;;;;5014008;28;20045;-78
2022/05/02 00:35:06;;;;;;;8.63;5.10;;;5.10;99.90;;;;;;5013775;28;20161;-78
2022/05/02 00:37:32;;;;;;;10.48;5.20;;;5.10;99.90;;;;;;5014063;28;20103;-78
2022/05/02 00:39:57;;;;;;;7.28;4.90;;;5.00;99.90;;;;;;5013748;28;20042;-78
2022/05/02 00:42:23;;;;;;;9.88;4.30;;;5.00;99.90;;;;;;5014066;28;20036;-78
2022/05/02 00:44:49;;;;;;;10.98;5.50;;;4.90;99.90;;;;;;5013975;28;20042;-78
2022/05/02 00:47:20;;;;;;;8.13;4.95;;;4.90;99.90;;;;;;4997995;28;20045;-78
2022/05/02 00:49:46;;;;;;;9.70;4.97;;;4.80;99.90;;;;;;4997361;28;20041;-78
2022/05/02 00:52:12;;;;;;;8.20;5.03;;;4.80;99.90;;;;;;5014008;28;20508;-78
2022/05/02 00:54:37;;;;;;;7.57;4.50;;;4.80;99.90;;;;;;5013903;28;20037;-78
2022/05/02 00:57:07;;;;;;;10.30;5.32;;;4.80;99.90;;;;;;4997986;28;20065;-78
2022/05/02 00:59:34;;;;;;;10.93;5.03;;;4.80;99.90;;;;;;5013835;28;20052;-78
2022/05/02 01:02:00;;;;;;;8.38;5.30;;;4.70;99.90;;;;;;4997756;28;20043;-78
2022/05/02 01:04:25;;;;;;;10.63;5.00;;;4.70;99.90;;;;;;4997713;28;20042;-78
2022/05/02 01:07:10;;;;;;;6.68;4.45;;;4.70;99.90;;;;;;5013644;28;20442;-78
2022/05/02 01:09:41;;;;;;;9.80;4.57;;;4.60;99.90;;;;;;5013462;28;20668;-78
2022/05/02 01:12:31;;;;;;;9.10;5.20;;;4.60;99.90;;;;;;5013547;28;20519;-78
2022/05/02 01:14:57;;;;;;;9.20;5.05;;;4.60;99.90;;;;;;5012934;28;20054;-78
2022/05/02 01:17:23;;;;;;;9.00;5.10;;;4.50;99.90;;;;;;5013288;28;20045;-78
2022/05/02 01:19:52;;;;;;;9.30;5.40;;;4.50;99.90;;;;;;5013403;28;20049;-78
2022/05/02 01:22:18;;;;;;;11.85;5.47;;;4.50;99.90;;;;;;5013964;28;20109;-78
2022/05/02 01:24:46;;;;;;;12.35;5.88;;;4.40;99.90;;;;;;5014024;28;20477;-78
2022/05/02 01:27:13;;;;;;;10.50;5.93;;;4.40;99.90;;;;;;5014195;28;20037;-78
2022/05/02 01:29:44;;;;;;;9.10;5.45;;;4.30;99.90;;;;;;5013588;28;20041;-78
2022/05/02 01:32:14;;;;;;;9.77;5.65;;;4.40;99.90;;;;;;4996959;28;20475;-78
2022/05/02 01:34:40;;;;;;;8.75;5.53;;;4.30;99.90;;;;;;5014106;28;20492;-78
2022/05/02 01:37:07;;;;;;;10.77;5.93;;;4.40;99.90;;;;;;5013774;28;20054;-78
2022/05/02 01:39:33;;;;;;;8.63;5.55;;;4.40;99.90;;;;;;5013372;28;20049;-78
2022/05/02 01:42:00;;;;;;;6.15;4.28;;;4.40;99.90;;;;;;5013721;28;20041;-78
2022/05/02 01:44:25;;;;;;;10.55;5.75;;;4.30;99.90;;;;;;5013615;28;20049;-78
2022/05/02 01:46:52;;;;;;;7.43;4.95;;;4.30;99.90;;;;;;4998835;28;20041;-78
2022/05/02 01:49:17;;;;;;;9.80;5.15;;;4.20;99.90;;;;;;5001456;28;20060;-78
2022/05/02 01:51:43;;;;;;;13.68;5.97;;;4.20;99.90;;;;;;5001024;28;20049;-78
2022/05/02 01:54:08;;;;;;;8.90;5.93;;;4.10;99.90;;;;;;5017692;28;20037;-78
2022/05/02 01:56:35;;;;;;;9.23;5.25;;;4.10;99.90;;;;;;5001726;28;20120;-78
2022/05/02 01:59:01;;;;;;;10.20;4.88;;;4.10;99.90;;;;;;5035258;28;20405;-78
2022/05/02 02:01:27;;;;;;;9.05;5.47;;;4.00;99.90;;;;;;5017412;28;20041;-78
2022/05/02 02:03:52;;;;;;;11.30;6.40;;;4.00;99.90;;;;;;5017874;28;20052;-78
2022/05/02 02:06:18;;;;;;;10.55;5.60;;;4.00;99.90;;;;;;5017859;28;20038;-78
2022/05/02 02:08:43;;;;;;;11.75;5.75;;;4.00;99.90;;;;;;5001356;28;20041;-78
2022/05/02 02:11:10;;;;;;;12.23;6.10;;;4.00;99.90;;;;;;5017011;28;20041;-78
2022/05/02 02:13:37;;;;;;;10.07;5.55;;;3.90;99.90;;;;;;5017819;28;20048;-78
2022/05/02 02:16:08;;;;;;;8.65;5.25;;;3.90;99.90;;;;;;5017360;28;20045;-78
2022/05/02 02:18:34;;;;;;;8.25;5.20;;;3.90;99.90;;;;;;5017653;28;20087;-78
2022/05/02 02:20:59;;;;;;;10.57;4.88;;;3.90;99.90;;;;;;5017572;28;20038;-78
2022/05/02 02:23:25;;;;;;;10.02;5.68;;;3.80;99.90;;;;;;5017247;28;20064;-78
2022/05/02 02:25:51;;;;;;;9.52;5.57;;;3.80;99.90;;;;;;5035096;28;20431;-78
2022/05/02 02:28:17;;;;;;;9.13;5.55;;;3.80;99.90;;;;;;5017595;28;20155;-78
2022/05/02 02:30:44;;;;;;;9.88;5.38;;;3.80;99.90;;;;;;5016843;28;20041;-77
2022/05/02 02:33:09;;;;;;;12.05;5.63;;;3.80;99.90;;;;;;5019428;28;20029;-78
2022/05/02 02:35:35;;;;;;;9.27;6.03;;;3.80;99.90;;;;;;5038089;28;20048;-77
2022/05/02 02:38:02;;;;;;;9.40;6.32;;;3.80;99.90;;;;;;5018311;28;20211;-78
2022/05/02 02:40:28;;;;;;;9.57;5.78;;;3.70;99.90;;;;;;5015225;28;20053;-78
2022/05/02 02:42:53;;;;;;;10.57;6.10;;;3.70;99.90;;;;;;5015696;28;20037;-78
2022/05/02 02:45:19;;;;;;;10.93;6.43;;;3.70;99.90;;;;;;5015807;28;20049;-78
2022/05/02 02:47:44;;;;;;;9.43;5.90;;;3.70;99.90;;;;;;4999134;28;20574;-78
2022/05/02 02:50:10;;;;;;;9.93;6.25;;;3.70;99.90;;;;;;5015171;28;20053;-78
2022/05/02 02:52:36;;;;;;;9.88;6.25;;;3.70;99.90;;;;;;5016002;28;20068;-77
2022/05/02 02:55:03;;;;;;;14.30;6.28;;;3.80;99.90;;;;;;5015717;28;20057;-77
2022/05/02 02:57:29;;;;;;;11.02;6.00;;;3.80;99.90;;;;;;5015380;28;20037;-77
2022/05/02 02:59:54;;;;;;;10.98;6.47;;;3.80;99.90;;;;;;5015405;28;20041;-77
2022/05/02 03:02:21;;;;;;;14.00;6.63;;;3.70;99.90;;;;;;5015606;28;20125;-77
2022/05/02 03:07:31;;;;;;;11.35;6.80;;;3.60;99.90;;;;;;5015625;28;20128;-78
2022/05/02 03:09:57;;;;;;;11.07;5.93;;;3.60;99.90;;;;;;4998904;28;20121;-76
2022/05/02 03:12:23;;;;;;;12.25;5.80;;;3.50;99.90;;;;;;5015378;28;20481;-77
2022/05/02 03:14:49;;;;;;;12.18;6.47;;;3.40;99.90;;;;;;5015287;28;20055;-77
2022/05/02 03:17:14;;;;;;;12.38;6.57;;;3.40;99.90;;;;;;5015316;28;20041;-76
2022/05/02 03:19:41;;;;;;;14.15;6.30;;;3.40;99.90;;;;;;5014897;28;20041;-77
2022/05/02 03:22:06;;;;;;;10.95;6.40;;;3.40;99.90;;;;;;5015327;28;20041;-77
2022/05/02 03:24:32;;;;;;;9.98;6.10;;;3.30;99.90;;;;;;4999221;28;20049;-78
2022/05/02 03:26:58;;;;;;;14.00;6.72;;;3.30;99.90;;;;;;5015319;28;20045;-78
2022/05/02 03:29:23;;;;;;;11.57;6.55;;;3.30;99.90;;;;;;5014991;28;20523;-77
2022/05/02 03:31:49;;;;;;;13.02;6.78;;;3.30;99.90;;;;;;5014818;28;20447;-77
2022/05/02 03:34:14;;;;;;;14.32;7.53;;;3.20;99.90;;;;;;5014954;28;20045;-77
2022/05/02 03:36:40;;;;;;;11.50;7.18;;;3.20;99.90;;;;;;5015426;28;20034;-79
2022/05/02 03:39:06;;;;;;;14.82;7.38;;;3.20;99.90;;;;;;5015110;28;20450;-77
2022/05/02 03:41:31;;;;;;;14.50;8.10;;;3.20;99.90;;;;;;5014628;28;20047;-76
2022/05/02 03:43:57;;;;;;;15.38;8.45;;;3.20;99.90;;;;;;5014825;28;20038;-77
2022/05/02 03:46:24;;;;;;;14.00;7.78;;;3.30;99.90;;;;;;5014781;28;20045;-77
2022/05/02 03:48:49;;;;;;;10.48;6.80;;;3.30;99.90;;;;;;5014885;28;20046;-77
2022/05/02 03:51:15;;;;;;;12.52;7.68;;;3.30;99.90;;;;;;5014506;28;20049;-77
2022/05/02 03:53:40;;;;;;;11.50;6.70;;;3.20;99.90;;;;;;5014836;28;20034;-77
2022/05/02 03:56:06;;;;;;;17.95;7.45;;;3.20;99.90;;;;;;5014584;28;20075;-76
2022/05/02 03:58:31;;;;;;;13.27;7.18;;;3.20;99.90;;;;;;5014460;28;20073;-77
2022/05/02 04:00:57;;;;;;;11.25;7.18;;;3.20;99.90;;;;;;5014240;28;20457;-77
2022/05/02 04:03:23;;;;;;;10.07;6.05;;;3.20;99.90;;;;;;4998091;28;20042;-79
2022/05/02 04:05:48;;;;;;;13.80;7.47;;;3.10;99.90;;;;;;5014580;28;20043;-77
2022/05/02 04:08:14;;;;;;;15.52;7.45;;;3.10;99.90;;;;;;5014689;28;20041;-77
2022/05/02 04:10:40;;;;;;;13.23;7.00;;;3.10;99.90;;;;;;5013542;28;20060;-76
2022/05/02 04:13:05;;;;;;;12.90;8.20;;;3.10;99.90;;;;;;5014661;28;20099;-78
2022/05/02 04:15:31;;;;;;;12.15;6.65;;;3.10;99.90;;;;;;5014162;28;20492;-77
2022/05/02 04:17:58;;;;;;;12.45;7.35;;;3.20;99.90;;;;;;5014245;28;20053;-77
2022/05/02 04:20:24;;;;;;;13.18;7.28;;;3.30;99.90;;;;;;5013451;28;20045;-79
2022/05/02 04:22:50;;;;;;;12.40;7.18;;;3.30;99.90;;;;;;5014074;28;20065;-77
2022/05/02 04:25:15;;;;;;;17.63;7.22;;;3.20;99.90;;;;;;4997821;28;20069;-76
2022/05/02 04:27:41;;;;;;;13.73;7.60;;;3.20;99.90;;;;;;5014382;28;20055;-77
2022/05/02 04:30:07;;;;;;;12.10;7.15;;;3.20;99.90;;;;;;5013971;28;20489;-77
2022/05/02 04:32:33;;;;;;;11.50;7.20;;;3.20;99.90;;;;;;5013960;28;20056;-77
2022/05/02 04:34:58;;;;;;;12.38;6.97;;;3.30;99.90;;;;;;5014008;28;20361;-76
2022/05/02 04:37:24;;;;;;;12.77;7.13;;;3.30;99.90;;;;;;5013948;28;20073;-78
2022/05/02 04:39:51;;;;;;;19.10;9.90;;;3.30;99.90;;;;;;5013351;28;20049;-79
2022/05/02 04:42:16;;;;;;;28.63;13.18;;;3.40;99.90;;;;;;5013684;28;20052;-80
2022/05/02 04:44:42;;;;;;;21.45;11.38;;;3.40;99.90;;;;;;5013548;28;20037;-80
2022/05/02 04:47:08;;;;;;;23.60;12.35;;;3.50;99.90;;;;;;4997487;28;20191;-78
2022/05/02 04:49:33;;;;;;;15.23;8.55;;;3.70;99.90;;;;;;4997044;28;20087;-78
2022/05/02 04:51:59;;;;;;;17.15;8.15;;;3.90;99.90;;;;;;5013396;28;20056;-78
2022/05/02 04:54:24;;;;;;;14.43;7.97;;;4.30;99.90;;;;;;5013119;28;20049;-79
2022/05/02 04:56:50;;;;;;;11.70;7.32;;;4.70;99.90;;;;;;5013513;28;20366;-78
2022/05/02 04:59:16;;;;;;;18.10;8.25;;;4.80;99.90;;;;;;5013222;28;20171;-78
2022/05/02 05:01:41;;;;;;;14.52;8.00;;;5.20;99.90;;;;;;5013115;28;20073;-79
2022/05/02 05:04:07;;;;;;;13.95;7.30;;;5.70;99.90;;;;;;5013920;28;20041;-79
2022/05/02 05:06:33;;;;;;;11.13;7.07;;;6.10;99.90;;;;;;5013489;28;20045;-81
2022/05/02 05:08:58;;;;;;;18.08;9.60;;;6.50;99.90;;;;;;5013158;28;20112;-78
2022/05/02 05:12:01;;;;;;;17.80;8.38;;;6.90;99.90;;;;;;5012919;28;20034;-79
2022/05/02 05:17:32;;;;;;;;;;;7.70;99.90;;;;;;5017169;28;20127;-82
2022/05/02 05:20:21;;;;;;;14.70;7.55;;;8.10;99.90;;;;;;5024403;28;19927;-80
2022/05/02 05:23:05;;;;;;;21.02;12.93;;;8.40;99.90;;;;;;4981525;28;20566;-80
2022/05/02 05:25:42;;;;;;;36.65;18.15;;;8.50;99.90;;;;;;5016870;28;20037;-79
2022/05/02 05:28:41;;;;;;;45.67;23.60;;;8.70;99.90;;;;;;5000516;28;20045;-80
2022/05/02 05:31:30;;;;;;;16.42;9.52;;;9.00;99.90;;;;;;5015807;28;20516;-79
2022/05/02 05:34:16;;;;;;;16.10;7.85;;;9.20;99.90;;;;;;5016265;28;20050;-81
2022/05/02 05:36:56;;;;;;;14.68;7.90;;;9.50;99.90;;;;;;5016299;28;20176;-79
2022/05/02 05:39:43;;;;;;;11.60;7.78;;;9.80;99.90;;;;;;5016769;28;20069;-78
2022/05/02 05:42:18;;;;;;;11.00;7.82;;;10.10;99.90;;;;;;5000265;28;20060;-78
2022/05/02 05:44:58;;;;;;;14.25;7.70;;;10.30;99.90;;;;;;5016243;28;20064;-77
2022/05/02 05:47:43;;;;;;;14.15;7.65;;;10.40;99.90;;;;;;5016685;28;20531;-78
2022/05/02 05:50:24;;;;;;;12.85;7.53;;;10.20;99.90;;;;;;5016089;28;20103;-77
2022/05/02 05:53:02;;;;;;;12.80;7.80;;;10.00;99.90;;;;;;5016550;28;20132;-79
2022/05/02 05:55:39;;;;;;;9.63;6.70;;;9.80;99.90;;;;;;5016174;28;20520;-77
2022/05/02 05:58:16;;;;;;;12.95;7.75;;;9.60;99.90;;;;;;4999661;28;20509;-77
2022/05/02 06:00:44;;;;;;;11.40;7.43;;;9.30;99.90;;;;;;5015828;28;20048;-80
2022/05/02 06:03:14;;;;;;;11.40;6.75;;;9.10;99.90;;;;;;5016037;28;20049;-77
2022/05/02 06:05:44;;;;;;;16.08;7.40;;;9.10;99.90;;;;;;5016363;28;20041;-77
2022/05/02 06:08:14;;;;;;;12.90;7.45;;;9.60;99.90;;;;;;5016217;28;20124;-76
2022/05/02 06:10:42;;;;;;;11.15;7.78;;;10.10;99.90;;;;;;5015695;28;20041;-76
2022/05/02 06:13:08;;;;;;;11.50;8.07;;;10.50;99.90;;;;;;5033756;28;20045;-76
2022/05/02 06:18:27;;;;;;;11.73;8.30;;;11.20;99.90;;;;;;5015627;28;20056;-77
2022/05/02 06:20:58;;;;;;;10.00;7.78;;;11.50;99.90;;;;;;5015331;28;20120;-78
2022/05/02 06:23:27;;;;;;;10.57;7.53;;;11.70;99.90;;;;;;5015612;28;20049;-76
2022/05/02 06:25:55;;;;;;;9.75;6.97;;;12.00;99.90;;;;;;5015462;28;20591;-76
2022/05/02 06:28:23;;;;;;;13.35;8.98;;;12.20;99.90;;;;;;5015894;28;20428;-77
2022/05/02 06:30:53;;;;;;;12.85;8.77;;;12.30;99.90;;;;;;5015026;28;20037;-79
2022/05/02 06:33:21;;;;;;;14.60;7.78;;;12.30;99.90;;;;;;5014928;28;20045;-77
2022/05/02 06:36:10;;;;;;;13.15;8.02;;;12.60;99.90;;;;;;5015446;28;20049;-77
2022/05/02 06:39:02;;;;;;;12.68;7.75;;;12.80;99.90;;;;;;5015696;28;20060;-76
2022/05/02 06:41:49;;;;;;;10.45;7.15;;;12.90;99.90;;;;;;5014856;28;20160;-79
2022/05/02 06:44:30;;;;;;;12.18;8.00;;;13.20;99.90;;;;;;5015214;28;20072;-76
2022/05/02 06:47:29;;;;;;;11.77;7.65;;;13.50;99.90;;;;;;5015125;28;20045;-77
2022/05/02 06:49:57;;;;;;;11.68;8.02;;;13.70;99.90;;;;;;4993671;28;20050;-76
2022/05/02 06:52:38;;;;;;;12.07;8.18;;;14.00;99.90;;;;;;5015366;28;20381;-76
2022/05/02 06:55:04;;;;;;;13.63;7.32;;;14.00;99.90;;;;;;5015044;28;20416;-77
2022/05/02 06:57:35;;;;;;;11.32;8.20;;;13.80;99.90;;;;;;5015201;28;20041;-77
2022/05/02 07:00:10;;;;;;;16.75;9.05;;;13.40;99.90;;;;;;5014512;28;20041;-76
2022/05/02 07:03:03;;;;;;;14.35;9.48;;;13.00;99.90;;;;;;5015147;28;20041;-76
2022/05/02 07:05:55;;;;;;;13.05;7.75;;;12.60;99.90;;;;;;5014834;28;20052;-77
2022/05/02 07:08:28;;;;;;;14.07;8.32;;;12.20;99.90;;;;;;5014690;28;20782;-78
2022/05/02 07:11:03;;;;;;;14.15;8.38;;;12.10;99.90;;;;;;5014277;28;20046;-76
2022/05/02 07:13:40;;;;;;;9.88;7.75;;;12.10;99.90;;;;;;5014612;28;20049;-77
2022/05/02 07:16:21;;;;;;;12.25;7.75;;;12.10;99.90;;;;;;5014447;28;20045;-77
2022/05/02 07:19:12;;;;;;;11.80;7.50;;;12.40;99.90;;;;;;5014311;28;20077;-77
2022/05/02 07:21:43;;;;;;;14.38;7.75;;;13.00;99.90;;;;;;5014452;28;20084;-77
2022/05/02 07:24:42;;;;;;;10.10;6.60;;;13.70;99.90;;;;;;5014636;28;20050;-76
2022/05/02 07:27:34;;;;;;;12.43;6.80;;;14.30;99.90;;;;;;5014424;28;20041;-76
2022/05/02 07:30:01;;;;;;;15.02;7.88;;;15.00;99.90;;;;;;5010244;28;20175;-77
2022/05/02 07:32:27;;;;;;;12.35;8.35;;;15.30;99.90;;;;;;5014031;28;20049;-77
2022/05/02 07:34:55;;;;;;;10.18;6.95;;;15.50;99.90;;;;;;5014092;28;20124;-77
2022/05/02 07:37:22;;;;;;;10.88;7.93;;;16.00;99.90;;;;;;5014106;28;20044;-77
2022/05/02 07:39:49;;;;;;;8.98;6.85;;;16.40;99.90;;;;;;5013486;28;20060;-77
2022/05/02 07:42:15;;;;;;;10.55;6.93;;;16.70;99.90;;;;;;5014068;28;20372;-77
2022/05/02 07:44:43;;;;;;;11.68;7.53;;;17.10;99.90;;;;;;5013318;28;20068;-80
2022/05/02 07:47:11;;;;;;;10.98;7.65;;;17.40;99.90;;;;;;5030298;28;20049;-79
2022/05/02 07:49:39;;;;;;;8.88;6.88;;;17.50;99.90;;;;;;5013551;28;20096;-77
2022/05/02 07:52:08;;;;;;;11.05;6.72;;;17.60;99.90;;;;;;5013873;28;20133;-78
2022/05/02 07:54:39;;;;;;;9.52;7.25;;;17.60;99.90;;;;;;5013616;28;20124;-77
2022/05/02 07:57:07;;;;;;;13.07;7.22;;;17.80;99.90;;;;;;5013809;28;20041;-77
2022/05/02 07:59:39;;;;;;;8.85;6.45;;;17.90;99.90;;;;;;5013346;28;20050;-77
2022/05/02 08:02:05;;;;;;;9.38;6.82;;;17.80;97.10;;;;;;5013677;28;20056;-77
2022/05/02 08:04:31;;;;;;;9.63;6.32;;;17.60;99.90;;;;;;5031384;28;20500;-77
2022/05/02 08:06:57;;;;;;;7.53;6.25;;;17.60;99.20;;;;;;5013553;28;20045;-77
2022/05/02 08:09:49;;;;;;;8.98;5.82;;;17.70;97.90;;;;;;5013412;28;20052;-78
2022/05/02 08:12:36;;;;;;;8.35;6.07;;;17.90;93.30;;;;;;5013754;28;20076;-77
2022/05/02 08:15:25;;;;;;;14.18;6.30;;;18.10;80.00;;;;;;5031202;28;20055;-78
2022/05/02 08:18:22;;;;;;;10.95;6.97;;;18.30;89.90;;;;;;5013771;28;20439;-78
2022/05/02 08:21:09;;;;;;;9.57;6.03;;;18.50;75.80;;;;;;5030805;28;20052;-77
2022/05/02 08:27:17;;;;;;;10.93;6.45;;;18.50;88.20;;;;;;5013518;28;20052;-77
2022/05/02 08:30:01;;;;;;;9.88;6.50;;;18.60;72.50;;;;;;5024932;28;20149;-78
2022/05/02 08:32:33;;;;;;;11.35;6.25;;;18.60;75.40;;;;;;5027097;28;20049;-79
2022/05/02 08:35:07;;;;;;;10.68;6.55;;;18.80;86.80;;;;;;5015751;28;20049;-79
2022/05/02 08:37:57;;;;;;;11.25;6.43;;;18.90;80.20;;;;;;5013259;28;20049;-80
2022/05/02 08:40:25;;;;;;;8.63;6.43;;;19.20;75.30;;;;;;5012813;28;20512;-78
2022/05/02 08:43:16;;;;;;;8.80;5.82;;;19.40;79.80;;;;;;5013339;28;20042;-78
2022/05/02 08:46:03;;;;;;;10.43;5.70;;;19.60;66.30;;;;;;5031323;28;20053;-78
2022/05/02 08:52:00;;;;;;;;;;;19.40;59.80;;;;;;5013330;28;20095;-78
2022/05/02 08:55:03;;;;;;;6.88;4.95;;;19.10;57.20;;;;;;5012967;28;19971;-78
2022/05/02 08:57:44;;;;;;;7.28;5.32;;;19.10;59.60;;;;;;5013228;28;20473;-79
2022/05/02 09:00:18;;;;;;;9.20;5.22;;;19.30;66.20;;;;;;5012850;28;20069;-79
2022/05/02 09:03:02;;;;;;;10.98;5.22;;;19.40;64.30;;;;;;5013339;28;20208;-80
2022/05/02 09:06:01;;;;;;;7.45;4.60;;;19.60;63.40;;;;;;5012937;28;20077;-79
2022/05/02 09:08:48;;;;;;;7.97;5.15;;;19.40;55.80;;;;;;5012840;28;20055;-78
2022/05/02 09:11:39;;;;;;;9.85;5.50;;;19.30;60.20;;;;;;5012911;28;20049;-81
2022/05/02 09:14:26;;;;;;;5.57;4.93;;;19.40;58.70;;;;;;4995896;28;20057;-77
2022/05/02 09:17:22;;;;;;;7.28;5.70;;;19.00;57.40;;;;;;5013044;28;20814;-77
2022/05/02 09:20:26;;;;;;;8.00;6.03;;;18.50;58.10;;;;;;5012328;28;20084;-78
2022/05/02 09:23:00;;;;;;;7.35;4.55;;;18.40;59.10;;;;;;5012780;28;20048;-78
2022/05/02 09:26:03;;;;;;;7.57;5.50;;;18.70;59.60;;;;;;5012973;28;20041;-78
2022/05/02 09:28:38;;;;;;;7.85;4.85;;;19.20;57.90;;;;;;5013155;28;20128;-79
2022/05/02 09:31:39;;;;;;;6.47;5.38;;;19.40;56.30;;;;;;5012498;28;20045;-77
2022/05/02 09:34:18;;;;;;;6.67;4.43;;;19.40;56.40;;;;;;5012787;28;20520;-78
2022/05/02 09:36:56;;;;;;;9.77;4.53;;;19.20;55.70;;;;;;5012553;28;20281;-77
2022/05/02 09:39:38;;;;;;;8.90;4.47;;;19.10;56.30;;;;;;5012500;28;20076;-77
2022/05/02 09:42:44;;;;;;;8.43;4.28;;;18.90;54.30;;;;;;5030330;28;20489;-78
2022/05/02 09:51:31;;;;;;;10.27;5.45;;;19.00;56.00;;;;;;5012274;28;20511;-78
2022/05/02 09:56:38;;;;;;;7.50;4.78;;;19.40;56.30;;;;;;5012414;28;20480;-77
2022/05/02 09:57:34;;;;;;;7.13;5.32;;;19.50;54.30;;;;;;5012282;28;20099;-78
2022/05/02 10:02:51;;;;;;;7.93;4.65;;;18.90;55.00;;;;;;5012468;28;20128;-77
2022/05/02 10:05:34;;;;;;;8.00;4.43;;;19.10;55.80;;;;;;5012468;28;20104;-79
2022/05/02 10:08:25;;;;;;;7.05;4.38;;;19.50;54.40;;;;;;5014475;28;20064;-77
2022/05/02 10:11:00;;;;;;;17.42;5.28;;;19.90;53.90;;;;;;5031814;28;20072;-77
2022/05/02 10:13:41;;;;;;;7.00;4.53;;;20.20;52.20;;;;;;4999439;28;20120;-78
2022/05/02 10:16:50;;;;;;;6.38;4.55;;;20.20;53.70;;;;;;5033802;28;20042;-77
2022/05/02 10:19:24;;;;;;;5.10;4.07;;;19.90;51.80;;;;;;5015599;28;20080;-77
2022/05/02 10:22:27;;;;;;;6.82;4.20;;;19.60;52.60;;;;;;5015542;28;20042;-78
2022/05/02 10:25:08;;;;;;;10.15;5.30;;;19.40;51.90;;;;;;5015608;28;20063;-77
2022/05/02 10:27:58;;;;;;;5.90;4.90;;;19.50;52.10;;;;;;5015484;28;20048;-80
2022/05/02 10:30:32;;;;;;;9.60;5.10;;;19.60;53.60;;;;;;5015139;28;20050;-79
2022/05/02 10:33:05;;;;;;;6.43;5.03;;;19.70;54.40;;;;;;5015510;28;20062;-77
2022/05/02 10:35:32;;;;;;;6.05;4.50;;;19.70;53.20;;;;;;5015491;28;20117;-77
2022/05/02 10:38:00;;;;;;;7.20;4.80;;;19.70;53.20;;;;;;5015655;28;20095;-79
2022/05/02 10:40:44;;;;;;;7.60;5.03;;;19.80;52.90;;;;;;5015165;28;20046;-77
2022/05/02 10:43:16;;;;;;;6.82;4.55;;;19.70;52.50;;;;;;5015338;28;20087;-79
2022/05/02 10:45:41;;;;;;;8.52;5.00;;;19.70;52.50;;;;;;5033223;28;20401;-77
2022/05/02 10:48:19;;;;;;;9.52;5.22;;;19.30;53.10;;;;;;4999246;28;20168;-78
2022/05/02 10:51:03;;;;;;;8.60;5.15;;;19.30;51.80;;;;;;5014697;28;20045;-78
2022/05/02 10:53:59;;;;;;;7.00;4.70;;;19.40;52.40;;;;;;5015022;28;20116;-77
2022/05/02 10:56:38;;;;;;;7.25;4.40;;;19.50;51.60;;;;;;5014860;28;20132;-77
2022/05/02 10:59:05;;;;;;;9.15;4.55;;;19.60;51.40;;;;;;5015198;28;20049;-76
2022/05/02 11:01:49;;;;;;;8.25;4.40;;;19.50;50.70;;;;;;5014739;28;20412;-78
2022/05/02 11:04:36;;;;;;;9.13;4.45;;;19.30;51.00;;;;;;5015024;28;20493;-76
2022/05/02 11:07:15;;;;;;;6.88;3.90;;;19.30;51.40;;;;;;5014827;28;20038;-77
2022/05/02 11:10:01;;;;;;;6.03;4.15;;;19.50;51.10;;;;;;5014346;28;20057;-77
2022/05/02 11:12:31;;;;;;;5.35;4.10;;;19.70;50.70;;;;;;5014909;28;20056;-78
2022/05/02 11:15:26;;;;;;;7.82;4.20;;;19.80;51.10;;;;;;5014684;28;20045;-77
2022/05/02 11:21:47;;;;;;;8.07;4.53;;;19.70;49.40;;;;;;5014115;28;20084;-77
2022/05/02 11:24:39;;;;;;;6.50;4.28;;;19.60;48.60;;;;;;5014782;28;20053;-77
2022/05/02 11:27:23;;;;;;;6.57;4.60;;;19.40;48.30;;;;;;5032227;28;20056;-77
2022/05/02 11:30:03;;;;;;;7.07;4.60;;;19.40;50.80;;;;;;5014541;28;20037;-76
2022/05/02 11:32:51;;;;;;;8.13;4.20;;;19.20;47.90;;;;;;5032424;28;20041;-77
2022/05/02 11:35:28;;;;;;;7.72;3.85;;;19.10;49.20;;;;;;5031293;28;20504;-77
2022/05/02 11:37:59;;;;;;;4.97;3.28;;;19.00;49.00;;;;;;5026267;28;20041;-78
2022/05/02 11:40:35;;;;;;;5.60;4.18;;;19.00;49.30;;;;;;5020418;28;20080;-76
2022/05/02 11:43:03;;;;;;;5.55;3.90;;;19.20;48.20;;;;;;5014531;28;20442;-77
2022/05/02 11:46:01;;;;;;;5.22;3.67;;;19.20;49.70;;;;;;5014350;28;20492;-77
2022/05/02 11:48:59;;;;;;;7.40;3.95;;;19.30;50.90;;;;;;5013988;28;20056;-78
2022/05/02 11:51:52;;;;;;;8.23;3.75;;;19.60;49.70;;;;;;5008044;28;20062;-77
2022/05/02 11:54:28;;;;;;;6.05;3.83;;;19.60;50.20;;;;;;5014229;28;20091;-76
2022/05/02 11:56:58;;;;;;;5.30;4.32;;;19.70;49.90;;;;;;5013855;28;20495;-77
2022/05/02 11:59:33;;;;;;;7.15;4.63;;;19.80;49.10;;;;;;5013728;28;20045;-76
2022/05/02 12:02:21;;;;;;;8.18;5.32;;;19.80;48.60;;;;;;5015195;28;20049;-81
2022/05/02 12:04:51;;;;;;;6.63;4.88;;;19.70;47.50;;;;;;5001165;28;20747;-79
2022/05/02 12:07:28;;;;;;;6.80;4.40;;;19.70;49.40;;;;;;5019151;28;20053;-79
2022/05/02 12:10:08;;;;;;;6.32;4.07;;;19.80;50.10;;;;;;5019307;28;20045;-79
2022/05/02 12:12:34;;;;;;;8.35;4.68;;;20.00;51.10;;;;;;5019725;28;20049;-79
2022/05/02 12:15:08;;;;;;;6.88;4.85;;;19.80;50.90;;;;;;5015828;28;20115;-79
2022/05/02 12:17:50;;;;;;;5.65;4.50;;;19.70;49.70;;;;;;5018812;28;20037;-80
2022/05/02 12:20:42;;;;;;;6.13;4.00;;;19.90;50.50;;;;;;5015358;28;20053;-79
2022/05/02 12:23:16;;;;;;;5.63;4.35;;;19.90;49.80;;;;;;5010031;28;20501;-78
2022/05/02 12:25:50;;;;;;;5.38;3.15;;;19.90;49.70;;;;;;5014320;28;20060;-78
2022/05/02 12:28:18;;;;;;;6.22;3.65;;;20.00;49.50;;;;;;5015327;28;20072;-80
2022/05/02 12:30:53;;;;;;;6.18;4.50;;;20.10;49.40;;;;;;5014106;28;20049;-80
2022/05/02 12:33:21;;;;;;;8.75;4.20;;;20.20;49.00;;;;;;5032181;28;20117;-79
2022/05/02 12:35:47;;;;;;;6.53;4.40;;;20.20;49.10;;;;;;4998870;28;20094;-80
2022/05/02 12:38:23;;;;;;;5.47;4.00;;;20.30;49.00;;;;;;5015612;28;20694;-80
2022/05/02 12:40:59;;;;;;;6.90;4.45;;;20.40;48.70;;;;;;4999207;28;20397;-80
2022/05/02 12:43:29;;;;;;;8.18;4.25;;;20.60;48.60;;;;;;4998502;28;20037;-79
2022/05/02 12:45:55;;;;;;;5.25;4.15;;;20.80;49.10;;;;;;5014512;28;20073;-79
2022/05/02 12:48:33;;;;;;;8.88;4.13;;;20.70;48.40;;;;;;5015170;28;20033;-79
2022/05/02 12:51:00;;;;;;;6.65;4.28;;;20.50;48.50;;;;;;5015065;28;20053;-80
2022/05/02 12:56:11;;;;;;;6.95;4.07;;;20.20;49.70;;;;;;5014303;28;20118;-81
2022/05/02 13:01:23;;;;;;;10.20;4.63;;;19.90;49.50;;;;;;5013666;28;20175;-78
2022/05/02 13:04:02;;;;;;;7.53;3.50;;;19.90;49.60;;;;;;5013092;28;20049;-78
2022/05/02 13:06:28;;;;;;;5.35;3.80;;;20.00;50.40;;;;;;5013193;28;20087;-78
2022/05/02 13:09:08;;;;;;;7.00;3.72;;;20.10;49.90;;;;;;5012786;28;20493;-78
2022/05/02 13:11:38;;;;;;;9.13;4.63;;;20.20;48.30;;;;;;5012439;28;20120;-78
2022/05/02 13:14:04;;;;;;;8.00;4.20;;;20.20;49.70;;;;;;5012859;28;20053;-78
2022/05/02 13:16:43;;;;;;;5.85;3.65;;;20.20;49.20;;;;;;5012828;28;20413;-78
2022/05/02 13:19:10;;;;;;;7.43;4.80;;;20.40;50.20;;;;;;5030392;28;20037;-78
2022/05/02 13:21:37;;;;;;;5.95;3.83;;;20.40;49.50;;;;;;5012609;28;20087;-78
2022/05/02 13:24:07;;;;;;;9.27;3.78;;;20.40;50.10;;;;;;5030404;28;20493;-78
2022/05/02 13:26:40;;;;;;;8.80;3.88;;;20.40;50.40;;;;;;5013014;28;20045;-78
2022/05/02 13:29:23;;;;;;;6.25;3.55;;;20.30;49.80;;;;;;5012591;28;20045;-78
2022/05/02 13:32:02;;;;;;;5.57;3.53;;;20.20;49.50;;;;;;5012298;28;20049;-78
2022/05/02 13:34:39;;;;;;;5.75;3.67;;;20.20;48.80;;;;;;5012882;28;20072;-78
2022/05/02 13:37:31;;;;;;;6.40;3.65;;;20.10;50.20;;;;;;5012719;28;20054;-78
2022/05/02 13:40:08;;;;;;;9.60;4.22;;;20.20;50.30;;;;;;5012481;28;20095;-78
2022/05/02 13:42:34;;;;;;;5.78;3.85;;;20.20;49.80;;;;;;5013778;28;20120;-78
2022/05/02 13:45:21;;;;;;;7.50;4.20;;;20.00;50.20;;;;;;5016376;28;20076;-78
2022/05/02 13:48:09;;;;;;;7.43;3.92;;;20.10;50.10;;;;;;5016154;28;20508;-78
2022/05/02 13:51:07;;;;;;;6.90;4.35;;;20.30;50.20;;;;;;4999658;28;20045;-78
2022/05/02 13:53:39;;;;;;;7.90;5.15;;;20.30;51.10;;;;;;5016374;28;20053;-78
2022/05/02 13:56:32;;;;;;;8.55;4.70;;;20.30;50.10;;;;;;5016240;28;20488;-78